Time,TemperatureF,DewpointF,PressureIn,WindDirection,WindDirectionDegrees,WindSpeedMPH,WindSpeedGustMPH,Humidity,HourlyPrecipIn,Conditions,Clouds,dailyrainin,SoftwareType,DateUTC
2013-05-03 00:00:00,55.9,52.7,30.26,NW,314,0.0,0.0,89,0.00,BKN,,0.00,WeatherDisplay:10.37,2013-05-03 04:00:00,
2013-05-03 00:30:00,55.4,52.2,30.25,NW,320,0.0,1.0,89,0.00,BKN,,0.00,WeatherDisplay:10.37,2013-05-03 04:30:00,
2013-05-03 00:59:00,55.0,51.9,30.25,ENE,71,0.0,5.0,89,0.00,BKN,,0.00,WeatherDisplay:10.37,2013-05-03 04:59:00,
2013-05-03 01:30:00,54.8,51.6,30.24,ESE,108,1.0,3.0,89,0.00,OVC,,0.00,WeatherDisplay:10.37,2013-05-03 05:30:00,
2013-05-03 02:00:00,54.3,51.1,30.23,North,3,1.0,3.0,89,0.00,OVC,,0.00,WeatherDisplay:10.37,2013-05-03 06:00:00,
2013-05-03 02:30:00,53.8,50.6,30.22,East,96,1.0,3.0,89,0.00,CLR,,0.00,WeatherDisplay:10.37,2013-05-03 06:30:00,
2013-05-03 03:00:00,53.2,50.1,30.22,NE,54,1.0,2.0,89,0.00,CLR,,0.00,WeatherDisplay:10.37,2013-05-03 07:00:00,
2013-05-03 03:30:00,52.7,49.5,30.22,NE,46,1.0,3.0,89,0.00,FEW,,0.00,WeatherDisplay:10.37,2013-05-03 07:30:00,
2013-05-03 04:00:00,52.3,49.5,30.21,NNE,32,1.0,2.0,90,0.00,FEW,,0.00,WeatherDisplay:10.37,2013-05-03 08:00:00,
2013-05-03 04:30:00,51.8,49.0,30.21,West,278,0.0,2.0,90,0.00,CLR,,0.00,WeatherDisplay:10.37,2013-05-03 08:30:00,
2013-05-03 04:59:00,51.4,48.3,30.21,NNW,342,0.0,2.0,89,0.00,CLR,,0.00,WeatherDisplay:10.37,2013-05-03 08:59:00,
2013-05-03 05:30:00,50.7,47.6,30.21,NE,50,1.0,3.0,89,0.00,CLR,,0.00,WeatherDisplay:10.37,2013-05-03 09:30:00,
2013-05-03 06:00:00,50.2,47.4,30.21,NE,36,0.0,3.0,90,0.00,CLR,,0.00,WeatherDisplay:10.37,2013-05-03 10:00:00,
2013-05-03 06:30:00,50.0,47.2,30.22,NE,43,1.0,3.0,90,0.00,CLR,,0.00,WeatherDisplay:10.37,2013-05-03 10:30:00,
2013-05-03 07:00:00,49.9,47.1,30.23,NNW,336,1.0,2.0,90,0.00,CLR,,0.00,WeatherDisplay:10.37,2013-05-03 11:00:00,
2013-05-03 07:30:00,50.0,47.2,30.24,ENE,63,0.0,2.0,90,0.00,CLR,,0.00,WeatherDisplay:10.37,2013-05-03 11:30:00,
2013-05-03 07:59:00,50.9,48.1,30.25,ENE,78,1.0,5.0,90,0.00,CLR,,0.00,WeatherDisplay:10.37,2013-05-03 11:59:00,
2013-05-03 08:29:00,52.2,49.0,30.25,NE,48,5.0,6.0,89,0.00,SCT,,0.00,WeatherDisplay:10.37,2013-05-03 12:29:00,
2013-05-03 08:59:00,53.4,49.0,30.25,ENE,73,1.0,6.0,85,0.00,SCT,,0.00,WeatherDisplay:10.37,2013-05-03 12:59:00,
2013-05-03 09:30:00,54.8,49.4,30.25,NNE,26,1.0,8.0,82,0.00,CLR,,0.00,WeatherDisplay:10.37,2013-05-03 13:30:00,
2013-05-03 10:00:00,57.6,50.4,30.25,ENE,57,2.0,8.0,77,0.00,CLR,,0.00,WeatherDisplay:10.37,2013-05-03 14:00:00,
2013-05-03 10:30:00,59.5,50.5,30.25,NE,46,3.0,6.0,72,0.00,FEW,,0.00,WeatherDisplay:10.37,2013-05-03 14:30:00,
2013-05-03 10:59:00,60.4,51.3,30.25,East,87,3.0,7.0,72,0.00,FEW,,0.00,WeatherDisplay:10.37,2013-05-03 14:59:00,
2013-05-03 11:29:00,61.2,52.8,30.25,North,349,2.0,8.0,74,0.00,BKN,,0.00,WeatherDisplay:10.37,2013-05-03 15:29:00,
2013-05-03 12:00:00,62.2,53.5,30.25,ENE,78,3.0,8.0,73,0.00,BKN,,0.00,WeatherDisplay:10.37,2013-05-03 16:00:00,
2013-05-03 12:30:00,64.5,54.1,30.24,North,353,2.0,7.0,69,0.00,BKN,,0.00,WeatherDisplay:10.37,2013-05-03 16:30:00,
2013-05-03 12:59:00,64.5,54.5,30.23,ENE,73,3.0,6.0,70,0.00,BKN,,0.00,WeatherDisplay:10.37,2013-05-03 16:59:00,
2013-05-03 13:29:00,65.1,53.9,30.22,ENE,70,3.0,8.0,67,0.00,SCT,,0.00,WeatherDisplay:10.37,2013-05-03 17:29:00,
2013-05-03 13:59:00,66.2,53.7,30.21,ESE,103,5.0,7.0,64,0.00,SCT,,0.00,WeatherDisplay:10.37,2013-05-03 17:59:00,
2013-05-03 14:30:00,68.1,55.0,30.21,ESE,118,5.0,7.0,63,0.00,SCT,,0.00,WeatherDisplay:10.37,2013-05-03 18:30:00,
2013-05-03 14:59:00,67.1,52.7,30.20,ESE,117,3.0,9.0,60,0.00,SCT,,0.00,WeatherDisplay:10.37,2013-05-03 18:59:00,
2013-05-03 15:30:00,66.8,52.4,30.19,ENE,78,5.0,5.0,60,0.00,SCT,,0.00,WeatherDisplay:10.37,2013-05-03 19:30:00,
2013-05-03 16:00:00,66.6,52.7,30.19,ESE,109,5.0,6.0,61,0.00,SCT,,0.00,WeatherDisplay:10.37,2013-05-03 20:00:00,
2013-05-03 16:30:00,65.4,52.4,30.18,East,90,1.0,6.0,63,0.00,SCT,,0.00,WeatherDisplay:10.37,2013-05-03 20:30:00,
2013-05-03 17:00:00,65.1,53.1,30.17,NNE,28,2.0,5.0,65,0.00,SCT,,0.00,WeatherDisplay:10.37,2013-05-03 21:00:00,
2013-05-03 17:30:00,65.3,53.2,30.17,ENE,60,2.0,5.0,65,0.00,FEW,,0.00,WeatherDisplay:10.37,2013-05-03 21:30:00,
2013-05-03 18:00:00,65.3,52.8,30.16,WNW,295,2.0,5.0,64,0.00,FEW,,0.00,WeatherDisplay:10.37,2013-05-03 22:00:00,
2013-05-03 18:30:00,64.7,52.6,30.16,East,84,3.0,6.0,65,0.00,SCT,,0.00,WeatherDisplay:10.37,2013-05-03 22:30:00,
2013-05-03 18:59:00,63.9,52.7,30.16,NE,50,1.0,5.0,67,0.00,SCT,,0.00,WeatherDisplay:10.37,2013-05-03 22:59:00,
2013-05-03 19:29:00,63.1,52.4,30.15,WNW,296,1.0,5.0,68,0.00,SCT,,0.00,WeatherDisplay:10.37,2013-05-03 23:29:00,
2013-05-03 20:00:00,62.4,52.1,30.15,NE,54,1.0,4.0,69,0.00,SCT,,0.00,WeatherDisplay:10.37,2013-05-04 00:00:00,
2013-05-03 20:30:00,61.5,49.6,30.16,NE,40,3.0,6.0,65,0.00,CLR,,0.00,WeatherDisplay:10.37,2013-05-04 00:30:00,
2013-05-03 20:59:00,60.1,45.2,30.17,NE,45,2.0,9.0,58,0.00,CLR,,0.00,WeatherDisplay:10.37,2013-05-04 00:59:00,
2013-05-03 21:30:00,59.0,43.8,30.17,East,98,3.0,6.0,57,0.00,CLR,,0.00,WeatherDisplay:10.37,2013-05-04 01:30:00,
2013-05-03 22:00:00,57.9,42.8,30.18,NNE,25,1.0,7.0,57,0.00,CLR,,0.00,WeatherDisplay:10.37,2013-05-04 02:00:00,
2013-05-03 22:29:00,56.7,42.9,30.18,ENE,64,1.0,8.0,60,0.00,CLR,,0.00,WeatherDisplay:10.37,2013-05-04 02:29:00,
2013-05-03 23:00:00,55.4,43.4,30.19,SE,136,5.0,6.0,64,0.00,CLR,,0.00,WeatherDisplay:10.37,2013-05-04 03:00:00,
2013-05-03 23:30:00,54.5,43.7,30.18,East,101,1.0,8.0,67,0.00,CLR,,0.00,WeatherDisplay:10.37,2013-05-04 03:30:00,